Time;durP1;ratioP1;P1;durP2;ratioP2;P2;SDS_P1;SDS_P2;PMS_P1;PMS_P2;Temp;Humidity;BMP_temperature;BMP_pressure;BME280_temperature;BME280_humidity;BME280_pressure;Samples;Min_cycle;Max_cycle;Signal;HPM_P1;HPM_P2
2023/09/18 00:02:24;;;;;;;12.30;9.50;;;;;;;;;;4991222;28;20467;-59
2023/09/18 00:04:49;;;;;;;12.48;10.45;;;;;;;;;;5000363;28;20402;-58
2023/09/18 00:07:14;;;;;;;14.97;10.80;;;;;;;;;;5008027;28;20924;-59
2023/09/18 00:09:39;;;;;;;12.33;10.70;;;;;;;;;;5002714;28;20874;-58
2023/09/18 00:12:05;;;;;;;13.33;9.53;;;;;;;;;;5009423;28;20867;-59
2023/09/18 00:14:30;;;;;;;14.63;11.63;;;;;;;;;;5012517;28;20399;-58
2023/09/18 00:16:57;;;;;;;12.60;9.30;;;;;;;;;;5002524;28;20909;-59
2023/09/18 00:19:23;;;;;;;13.43;10.02;;;;;;;;;;4994902;28;20433;-59
2023/09/18 00:21:48;;;;;;;13.88;9.70;;;;;;;;;;5015726;28;20817;-59
2023/09/18 00:24:14;;;;;;;13.67;11.37;;;;;;;;;;5023086;28;20431;-59
2023/09/18 00:26:39;;;;;;;12.83;11.13;;;;;;;;;;5023091;28;20444;-58
2023/09/18 00:29:04;;;;;;;12.63;10.60;;;;;;;;;;5020319;28;20403;-58
2023/09/18 00:31:29;;;;;;;12.90;10.57;;;;;;;;;;5021414;28;20457;-59
2023/09/18 00:33:55;;;;;;;15.67;13.50;;;;;;;;;;5023241;28;20413;-59
2023/09/18 00:36:20;;;;;;;14.83;12.40;;;;;;;;;;5027444;28;20482;-59
2023/09/18 00:38:46;;;;;;;15.18;13.27;;;;;;;;;;5027697;28;20409;-59
2023/09/18 00:41:12;;;;;;;14.75;12.15;;;;;;;;;;5032598;28;20454;-59
2023/09/18 00:43:37;;;;;;;15.65;12.70;;;;;;;;;;5022855;28;20429;-58
2023/09/18 00:46:03;;;;;;;14.82;11.73;;;;;;;;;;5017737;28;20526;-59
2023/09/18 00:48:28;;;;;;;14.33;11.93;;;;;;;;;;5029089;28;20418;-59
2023/09/18 00:50:54;;;;;;;14.73;11.87;;;;;;;;;;5031653;28;20489;-58
2023/09/18 00:53:20;;;;;;;14.00;10.80;;;;;;;;;;5017724;28;20419;-59
2023/09/18 00:55:45;;;;;;;14.70;11.73;;;;;;;;;;5019681;28;20400;-59
2023/09/18 00:58:10;;;;;;;11.50;10.30;;;;;;;;;;5022633;28;20401;-59
2023/09/18 01:00:36;;;;;;;13.00;10.53;;;;;;;;;;5020297;28;20395;-59
2023/09/18 01:03:01;;;;;;;15.13;11.57;;;;;;;;;;5018716;28;20782;-59
2023/09/18 01:05:27;;;;;;;13.85;11.85;;;;;;;;;;5022928;28;20405;-59
2023/09/18 01:07:52;;;;;;;16.30;12.53;;;;;;;;;;5022056;28;20472;-58
2023/09/18 01:10:19;;;;;;;16.83;12.10;;;;;;;;;;5018541;28;20885;-59
2023/09/18 01:12:48;;;;;;;16.67;12.97;;;;;;;;;;5021007;28;20482;-59
2023/09/18 01:15:17;;;;;;;15.05;13.23;;;;;;;;;;5014468;28;20744;-59
2023/09/18 01:17:42;;;;;;;15.05;12.50;;;;;;;;;;5021745;28;20482;-58
2023/09/18 01:20:09;;;;;;;14.50;11.40;;;;;;;;;;5018121;28;20495;-59
2023/09/18 01:22:34;;;;;;;17.13;13.85;;;;;;;;;;5017703;28;20903;-59
2023/09/18 01:25:00;;;;;;;15.70;13.03;;;;;;;;;;5015661;28;20444;-59
2023/09/18 01:27:25;;;;;;;14.80;12.70;;;;;;;;;;5023066;28;20403;-59
2023/09/18 01:29:50;;;;;;;15.00;13.43;;;;;;;;;;5014090;28;20432;-59
2023/09/18 01:32:16;;;;;;;18.33;14.57;;;;;;;;;;5017346;28;21007;-59
2023/09/18 01:34:48;;;;;;;16.17;14.33;;;;;;;;;;5031033;28;20407;-59
2023/09/18 01:37:15;;;;;;;14.13;11.70;;;;;;;;;;5032415;28;20919;-59
2023/09/18 01:39:40;;;;;;;14.38;12.02;;;;;;;;;;5024673;28;20964;-59
2023/09/18 01:42:06;;;;;;;14.90;12.57;;;;;;;;;;5019202;28;20423;-59
2023/09/18 01:44:32;;;;;;;16.77;13.40;;;;;;;;;;5022366;28;20822;-59
2023/09/18 01:46:58;;;;;;;14.02;12.30;;;;;;;;;;5027268;28;20477;-59
2023/09/18 01:49:28;;;;;;;19.10;14.15;;;;;;;;;;5023821;28;20407;-59
2023/09/18 01:51:54;;;;;;;13.63;11.57;;;;;;;;;;5022506;28;20399;-59
2023/09/18 01:54:19;;;;;;;17.07;13.27;;;;;;;;;;5022369;28;20957;-59
2023/09/18 01:56:44;;;;;;;15.60;13.23;;;;;;;;;;5018055;28;20732;-59
2023/09/18 01:59:09;;;;;;;15.57;13.27;;;;;;;;;;5022437;28;20411;-59
2023/09/18 02:01:37;;;;;;;14.43;12.47;;;;;;;;;;5034778;28;20981;-59
2023/09/18 02:04:03;;;;;;;15.77;13.32;;;;;;;;;;5030863;28;20406;-59
2023/09/18 02:06:28;;;;;;;15.40;12.47;;;;;;;;;;5027401;28;20475;-59
2023/09/18 02:08:55;;;;;;;15.80;11.90;;;;;;;;;;5041037;28;20408;-59
2023/09/18 02:11:20;;;;;;;13.33;11.93;;;;;;;;;;5025173;28;20952;-59
2023/09/18 02:13:46;;;;;;;17.20;13.30;;;;;;;;;;5020895;28;20411;-59
2023/09/18 02:16:11;;;;;;;14.43;11.80;;;;;;;;;;5025720;28;20413;-59
2023/09/18 02:18:36;;;;;;;14.63;12.57;;;;;;;;;;5025531;28;20442;-59
2023/09/18 02:21:02;;;;;;;14.80;11.20;;;;;;;;;;5030543;28;20403;-59
2023/09/18 02:23:28;;;;;;;13.02;11.05;;;;;;;;;;5032235;28;20475;-59
2023/09/18 02:25:59;;;;;;;14.27;12.07;;;;;;;;;;5033396;28;20506;-59
2023/09/18 02:28:24;;;;;;;13.63;11.15;;;;;;;;;;5026536;28;20897;-59
2023/09/18 02:30:49;;;;;;;14.48;11.93;;;;;;;;;;4993564;28;20494;-59
2023/09/18 02:33:15;;;;;;;16.77;12.33;;;;;;;;;;4999534;28;20502;-59
2023/09/18 02:35:41;;;;;;;18.53;12.97;;;;;;;;;;4999595;28;20900;-58
2023/09/18 02:38:06;;;;;;;15.77;11.63;;;;;;;;;;5006815;28;20947;-59
2023/09/18 02:40:31;;;;;;;14.90;10.80;;;;;;;;;;5002056;28;20402;-59
2023/09/18 02:42:56;;;;;;;15.07;10.10;;;;;;;;;;4995506;28;20419;-59
2023/09/18 02:45:22;;;;;;;15.43;11.57;;;;;;;;;;4990556;28;20407;-59
2023/09/18 02:47:47;;;;;;;15.13;11.73;;;;;;;;;;4991818;28;20419;-59
2023/09/18 02:50:12;;;;;;;14.85;11.88;;;;;;;;;;4990120;28;20505;-59
2023/09/18 02:52:38;;;;;;;13.03;10.20;;;;;;;;;;4982671;28;20402;-59
2023/09/18 02:55:03;;;;;;;17.20;11.77;;;;;;;;;;4988274;28;21158;-59
2023/09/18 02:57:29;;;;;;;15.97;11.27;;;;;;;;;;4982670;28;20691;-58
2023/09/18 02:59:54;;;;;;;16.40;11.80;;;;;;;;;;4990646;28;20928;-58
2023/09/18 03:02:19;;;;;;;15.67;11.03;;;;;;;;;;4991526;28;20427;-59
2023/09/18 03:04:45;;;;;;;18.27;12.50;;;;;;;;;;4991519;28;20491;-59
2023/09/18 03:07:12;;;;;;;14.03;10.97;;;;;;;;;;4988771;28;20461;-59
2023/09/18 03:09:37;;;;;;;17.33;12.00;;;;;;;;;;4991576;28;21128;-59
2023/09/18 03:12:03;;;;;;;17.38;12.23;;;;;;;;;;4993664;28;21435;-59
2023/09/18 03:14:28;;;;;;;18.17;14.13;;;;;;;;;;4985484;28;20409;-59
2023/09/18 03:16:53;;;;;;;16.77;12.37;;;;;;;;;;4983166;28;20402;-59
2023/09/18 03:19:19;;;;;;;16.03;11.77;;;;;;;;;;4986769;28;20425;-58
2023/09/18 03:21:44;;;;;;;16.43;11.53;;;;;;;;;;4987740;28;20499;-59
2023/09/18 03:24:09;;;;;;;17.93;11.50;;;;;;;;;;4989969;28;20423;-59
2023/09/18 03:26:35;;;;;;;14.97;11.27;;;;;;;;;;4992072;28;20458;-59
2023/09/18 03:29:00;;;;;;;14.93;10.77;;;;;;;;;;4990407;28;20795;-58
2023/09/18 03:31:25;;;;;;;15.23;10.47;;;;;;;;;;5009896;28;20428;-58
2023/09/18 03:33:51;;;;;;;16.70;11.13;;;;;;;;;;5011544;28;20431;-59
2023/09/18 03:36:16;;;;;;;14.90;11.50;;;;;;;;;;5010420;28;20959;-58
2023/09/18 03:38:41;;;;;;;16.80;11.50;;;;;;;;;;5001743;28;20998;-58
2023/09/18 03:41:07;;;;;;;16.97;11.87;;;;;;;;;;4993422;28;20415;-59
2023/09/18 03:43:32;;;;;;;16.98;11.30;;;;;;;;;;4989414;28;21002;-59
2023/09/18 03:46:04;;;;;;;13.30;10.10;;;;;;;;;;4989722;28;20422;-58
2023/09/18 03:48:36;;;;;;;14.82;9.60;;;;;;;;;;4988485;28;20398;-59
2023/09/18 03:51:01;;;;;;;15.35;10.10;;;;;;;;;;4988797;28;20987;-59
2023/09/18 03:53:26;;;;;;;13.27;9.87;;;;;;;;;;4992212;28;20407;-59
2023/09/18 03:55:52;;;;;;;13.77;9.53;;;;;;;;;;4989626;28;20669;-59
2023/09/18 03:58:17;;;;;;;13.37;9.53;;;;;;;;;;4988483;28;20959;-59
2023/09/18 04:00:43;;;;;;;13.70;10.17;;;;;;;;;;4988819;28;20406;-59
2023/09/18 04:03:09;;;;;;;13.23;9.13;;;;;;;;;;4979230;28;21087;-59
2023/09/18 04:05:34;;;;;;;13.57;10.10;;;;;;;;;;4981603;28;20453;-59
2023/09/18 04:07:59;;;;;;;11.83;8.27;;;;;;;;;;4991203;28;20517;-59
2023/09/18 04:10:25;;;;;;;13.90;7.80;;;;;;;;;;4988687;28;20414;-59
2023/09/18 04:12:51;;;;;;;15.82;9.18;;;;;;;;;;4988917;28;20413;-59
2023/09/18 04:15:18;;;;;;;13.40;9.10;;;;;;;;;;4987689;28;21609;-59
2023/09/18 04:17:43;;;;;;;16.02;10.10;;;;;;;;;;4999595;28;20393;-58
2023/09/18 04:20:09;;;;;;;14.07;9.03;;;;;;;;;;5000512;28;20417;-59
2023/09/18 04:22:34;;;;;;;14.67;9.40;;;;;;;;;;4995819;28;20955;-59
2023/09/18 04:24:59;;;;;;;17.20;10.20;;;;;;;;;;4995496;28;20422;-59
2023/09/18 04:27:25;;;;;;;12.90;9.33;;;;;;;;;;4998092;28;20417;-59
2023/09/18 04:29:50;;;;;;;13.43;9.93;;;;;;;;;;5006272;28;20482;-58
2023/09/18 04:32:15;;;;;;;16.52;9.25;;;;;;;;;;5011895;28;20393;-59
2023/09/18 04:34:42;;;;;;;15.45;10.10;;;;;;;;;;5001866;28;20457;-59
2023/09/18 04:37:07;;;;;;;14.07;8.88;;;;;;;;;;4996710;28;20415;-59
2023/09/18 04:39:33;;;;;;;13.40;9.70;;;;;;;;;;5006942;28;20403;-59
2023/09/18 04:42:00;;;;;;;11.73;7.97;;;;;;;;;;5004808;28;20421;-58
2023/09/18 04:44:25;;;;;;;13.60;8.27;;;;;;;;;;5005095;28;20758;-58
2023/09/18 04:46:51;;;;;;;12.40;8.20;;;;;;;;;;4998678;28;20440;-59
2023/09/18 04:49:16;;;;;;;12.20;8.53;;;;;;;;;;5004097;28;20925;-59
2023/09/18 04:51:42;;;;;;;14.25;8.90;;;;;;;;;;5002550;28;20505;-59
2023/09/18 04:54:07;;;;;;;12.88;7.82;;;;;;;;;;5007344;28;20569;-59
2023/09/18 04:56:32;;;;;;;12.90;8.20;;;;;;;;;;5009363;28;20396;-59
2023/09/18 04:58:58;;;;;;;16.73;8.83;;;;;;;;;;5011202;28;20417;-59
2023/09/18 05:01:24;;;;;;;15.70;8.90;;;;;;;;;;5008164;28;20888;-59
2023/09/18 05:03:50;;;;;;;15.55;8.60;;;;;;;;;;5009075;28;20470;-58
2023/09/18 05:06:16;;;;;;;11.33;7.37;;;;;;;;;;5008310;28;20977;-59
2023/09/18 05:08:41;;;;;;;13.35;7.63;;;;;;;;;;4999925;28;20397;-59
2023/09/18 05:11:07;;;;;;;13.87;7.90;;;;;;;;;;4999490;28;20416;-58
2023/09/18 05:13:32;;;;;;;11.77;7.20;;;;;;;;;;5003910;28;20393;-58
2023/09/18 05:15:58;;;;;;;11.57;7.57;;;;;;;;;;5004748;28;21145;-58
2023/09/18 05:18:23;;;;;;;13.43;7.57;;;;;;;;;;5003382;28;20890;-59
2023/09/18 05:20:48;;;;;;;15.67;7.70;;;;;;;;;;5002600;28;20415;-59
2023/09/18 05:23:14;;;;;;;17.63;7.63;;;;;;;;;;5001969;28;20429;-58
2023/09/18 05:25:41;;;;;;;12.75;6.57;;;;;;;;;;4995382;28;20413;-59
2023/09/18 05:28:07;;;;;;;13.75;6.90;;;;;;;;;;5002191;28;20850;-59
2023/09/18 05:30:34;;;;;;;14.07;7.40;;;;;;;;;;4998971;28;20608;-59
2023/09/18 05:33:04;;;;;;;14.48;6.88;;;;;;;;;;5002738;28;20440;-59
2023/09/18 05:35:30;;;;;;;14.65;7.00;;;;;;;;;;4992354;28;20396;-59
2023/09/18 05:37:57;;;;;;;14.07;6.87;;;;;;;;;;5007413;28;20416;-59
2023/09/18 05:40:22;;;;;;;12.07;6.95;;;;;;;;;;5004778;28;20393;-59
2023/09/18 05:42:47;;;;;;;15.17;7.00;;;;;;;;;;5002544;28;20406;-59
2023/09/18 05:45:13;;;;;;;18.63;7.83;;;;;;;;;;4999153;28;20414;-59
2023/09/18 05:47:38;;;;;;;14.18;7.10;;;;;;;;;;4998225;28;20427;-59
2023/09/18 05:50:06;;;;;;;13.63;6.88;;;;;;;;;;4991688;28;20752;-60
2023/09/18 05:52:32;;;;;;;13.70;7.13;;;;;;;;;;4988094;28;20437;-59
2023/09/18 05:54:57;;;;;;;12.20;6.40;;;;;;;;;;4986790;28;20513;-59
2023/09/18 05:57:22;;;;;;;16.27;7.77;;;;;;;;;;4984521;28;20406;-59
2023/09/18 05:59:47;;;;;;;13.17;6.87;;;;;;;;;;4987823;28;21459;-59
2023/09/18 06:02:13;;;;;;;12.37;6.80;;;;;;;;;;4992430;28;20493;-59
2023/09/18 06:04:38;;;;;;;12.17;6.83;;;;;;;;;;4994476;28;20415;-59
2023/09/18 06:07:03;;;;;;;11.03;6.30;;;;;;;;;;4990083;28;20462;-59
2023/09/18 06:09:29;;;;;;;13.97;7.23;;;;;;;;;;4990872;28;20870;-59
2023/09/18 06:11:54;;;;;;;12.03;6.80;;;;;;;;;;4994973;28;20417;-59
2023/09/18 06:14:19;;;;;;;12.30;6.70;;;;;;;;;;5011072;28;20403;-59
2023/09/18 06:16:44;;;;;;;11.67;6.60;;;;;;;;;;5013659;28;20759;-59
2023/09/18 06:19:10;;;;;;;11.37;6.67;;;;;;;;;;5018696;28;20488;-59
2023/09/18 06:21:35;;;;;;;11.40;6.67;;;;;;;;;;5013677;28;20442;-59
2023/09/18 06:24:00;;;;;;;12.27;7.30;;;;;;;;;;5012920;28;20403;-59
2023/09/18 06:26:25;;;;;;;11.53;6.80;;;;;;;;;;5022613;28;20405;-59
2023/09/18 06:28:52;;;;;;;13.77;7.13;;;;;;;;;;5021156;28;20472;-58
2023/09/18 06:31:18;;;;;;;12.63;6.78;;;;;;;;;;5035070;28;20470;-58
2023/09/18 06:33:43;;;;;;;12.43;6.35;;;;;;;;;;5039440;28;20419;-59
2023/09/18 06:36:09;;;;;;;11.13;6.43;;;;;;;;;;5022318;28;20403;-59
2023/09/18 06:38:34;;;;;;;10.80;6.53;;;;;;;;;;5029136;28;20414;-59
2023/09/18 06:40:59;;;;;;;10.10;5.90;;;;;;;;;;5034227;28;20444;-59
2023/09/18 06:43:24;;;;;;;12.60;5.90;;;;;;;;;;5024943;28;20395;-58
2023/09/18 06:45:50;;;;;;;11.50;5.80;;;;;;;;;;5026715;28;20419;-59
2023/09/18 06:48:16;;;;;;;10.83;6.30;;;;;;;;;;5028041;28;20432;-59
2023/09/18 06:50:42;;;;;;;9.90;5.65;;;;;;;;;;5036642;28;20394;-59
2023/09/18 06:53:07;;;;;;;11.57;6.43;;;;;;;;;;5027840;28;20522;-59
2023/09/18 06:55:33;;;;;;;11.35;5.40;;;;;;;;;;5032976;28;20403;-59
2023/09/18 06:57:58;;;;;;;12.00;5.47;;;;;;;;;;5024188;28;20482;-59
2023/09/18 07:00:23;;;;;;;9.90;5.30;;;;;;;;;;5017380;28;20411;-59
2023/09/18 07:02:49;;;;;;;11.03;5.40;;;;;;;;;;5023463;28;20752;-59
2023/09/18 07:05:14;;;;;;;11.48;5.50;;;;;;;;;;5024224;28;21729;-59
2023/09/18 07:07:40;;;;;;;11.10;5.45;;;;;;;;;;5023708;28;20561;-59
2023/09/18 07:10:05;;;;;;;8.35;4.60;;;;;;;;;;5021127;28;21803;-59
2023/09/18 07:12:31;;;;;;;14.30;5.43;;;;;;;;;;5024583;28;20502;-59
2023/09/18 07:14:58;;;;;;;7.60;4.20;;;;;;;;;;5014395;28;20764;-59
2023/09/18 07:17:23;;;;;;;9.82;4.50;;;;;;;;;;5010801;28;20377;-59
2023/09/18 07:19:48;;;;;;;7.53;3.70;;;;;;;;;;5033506;28;20437;-59
2023/09/18 07:22:14;;;;;;;8.73;3.83;;;;;;;;;;5037194;28;20421;-59
2023/09/18 07:24:41;;;;;;;6.57;3.33;;;;;;;;;;5039083;28;20489;-59
2023/09/18 07:27:07;;;;;;;7.17;3.50;;;;;;;;;;5038547;28;20435;-59
2023/09/18 07:29:33;;;;;;;8.43;3.27;;;;;;;;;;5035771;28;20412;-59
2023/09/18 07:31:58;;;;;;;6.85;2.85;;;;;;;;;;5043631;28;20401;-59
2023/09/18 07:34:23;;;;;;;6.17;2.77;;;;;;;;;;5040081;28;20398;-59
2023/09/18 07:36:53;;;;;;;5.90;2.70;;;;;;;;;;5041410;28;20398;-58
2023/09/18 07:39:19;;;;;;;7.55;2.72;;;;;;;;;;5043686;28;21179;-59
2023/09/18 07:41:44;;;;;;;5.33;2.40;;;;;;;;;;5036982;28;20391;-59
2023/09/18 07:44:09;;;;;;;5.03;2.40;;;;;;;;;;5029093;28;20429;-59
2023/09/18 07:46:35;;;;;;;5.90;2.50;;;;;;;;;;5035850;28;20783;-59
2023/09/18 07:49:00;;;;;;;5.75;2.30;;;;;;;;;;5034721;28;20436;-60
2023/09/18 07:51:26;;;;;;;4.73;1.90;;;;;;;;;;5027691;28;20403;-58
2023/09/18 07:53:51;;;;;;;4.87;2.03;;;;;;;;;;5031718;28;20403;-59
2023/09/18 07:56:18;;;;;;;5.57;2.20;;;;;;;;;;5033949;28;20422;-59
2023/09/18 07:58:43;;;;;;;4.55;2.03;;;;;;;;;;5032867;28;20429;-59
2023/09/18 08:01:10;;;;;;;5.78;2.10;;;;;;;;;;5031123;28;20835;-59
2023/09/18 08:03:35;;;;;;;5.28;2.50;;;;;;;;;;5031663;28;20403;-59
2023/09/18 08:06:00;;;;;;;5.63;2.00;;;;;;;;;;5030842;28;20426;-59
2023/09/18 08:08:25;;;;;;;4.47;1.90;;;;;;;;;;5030281;28;20812;-58
2023/09/18 08:10:51;;;;;;;3.50;1.70;;;;;;;;;;5033543;28;20397;-58
2023/09/18 08:13:16;;;;;;;5.70;1.80;;;;;;;;;;5032746;28;20962;-59
2023/09/18 08:15:41;;;;;;;5.18;1.90;;;;;;;;;;5027218;28;20439;-59
2023/09/18 08:18:07;;;;;;;4.30;1.90;;;;;;;;;;5030372;28;20476;-59
2023/09/18 08:20:33;;;;;;;4.77;1.90;;;;;;;;;;5023266;28;20436;-59
2023/09/18 08:23:01;;;;;;;5.33;1.60;;;;;;;;;;5020720;28;20394;-58
2023/09/18 08:25:26;;;;;;;4.72;1.73;;;;;;;;;;5039569;28;20479;-58
2023/09/18 08:27:51;;;;;;;4.77;1.70;;;;;;;;;;5042344;28;20928;-58
2023/09/18 08:30:20;;;;;;;4.60;1.97;;;;;;;;;;5042185;28;20401;-58
2023/09/18 08:32:46;;;;;;;5.18;1.70;;;;;;;;;;5032267;28;20466;-59
2023/09/18 08:35:11;;;;;;;4.00;1.77;;;;;;;;;;5032084;28;20914;-58
2023/09/18 08:37:36;;;;;;;4.27;2.00;;;;;;;;;;5034685;28;20402;-59
2023/09/18 08:40:09;;;;;;;5.30;1.80;;;;;;;;;;5030932;28;20485;-59
2023/09/18 08:42:34;;;;;;;2.93;1.50;;;;;;;;;;5028809;28;20502;-58
2023/09/18 08:44:59;;;;;;;3.50;1.77;;;;;;;;;;5030768;28;21135;-59
2023/09/18 08:47:25;;;;;;;4.97;1.80;;;;;;;;;;5015957;28;20469;-59
2023/09/18 08:49:50;;;;;;;6.20;1.70;;;;;;;;;;5017352;28;20478;-59
2023/09/18 08:52:15;;;;;;;4.17;1.70;;;;;;;;;;5021366;28;20469;-60
2023/09/18 08:54:40;;;;;;;5.43;1.80;;;;;;;;;;5023190;28;20485;-59
2023/09/18 08:57:07;;;;;;;4.60;1.73;;;;;;;;;;5017478;28;20422;-60
2023/09/18 08:59:33;;;;;;;4.60;1.80;;;;;;;;;;5025660;28;20816;-59
2023/09/18 09:01:58;;;;;;;4.63;1.70;;;;;;;;;;5025420;28;20395;-59
2023/09/18 09:04:24;;;;;;;4.43;1.60;;;;;;;;;;5021023;28;20422;-58
2023/09/18 09:06:49;;;;;;;3.42;1.52;;;;;;;;;;5019101;28;20415;-58
2023/09/18 09:09:15;;;;;;;3.87;1.60;;;;;;;;;;5029513;28;20410;-59
2023/09/18 09:11:46;;;;;;;3.67;1.50;;;;;;;;;;5023619;28;20445;-58
2023/09/18 09:14:15;;;;;;;5.78;1.92;;;;;;;;;;5021633;28;20403;-59
2023/09/18 09:16:41;;;;;;;3.75;1.70;;;;;;;;;;5019658;28;20506;-58
2023/09/18 09:19:07;;;;;;;5.90;2.07;;;;;;;;;;5026816;28;20553;-59
2023/09/18 09:21:43;;;;;;;3.80;1.50;;;;;;;;;;5033767;28;21028;-58
2023/09/18 09:24:10;;;;;;;5.97;1.73;;;;;;;;;;5023308;28;20438;-59
2023/09/18 09:26:36;;;;;;;4.05;1.50;;;;;;;;;;5026606;28;20480;-59
2023/09/18 09:29:13;;;;;;;3.90;1.50;;;;;;;;;;5025055;28;20922;-59
2023/09/18 09:31:39;;;;;;;4.70;1.70;;;;;;;;;;5022204;28;20475;-58
2023/09/18 09:34:05;;;;;;;4.30;1.70;;;;;;;;;;5025663;28;20418;-59
2023/09/18 09:36:31;;;;;;;5.35;1.63;;;;;;;;;;5026267;28;20477;-58
2023/09/18 09:38:58;;;;;;;4.15;1.60;;;;;;;;;;5021276;28;21011;-58
2023/09/18 09:41:23;;;;;;;5.43;1.80;;;;;;;;;;5027843;28;20417;-58
2023/09/18 09:43:49;;;;;;;4.03;1.67;;;;;;;;;;5026778;28;20760;-58
2023/09/18 09:46:17;;;;;;;4.32;1.65;;;;;;;;;;5032171;28;20913;-58
2023/09/18 09:48:59;;;;;;;5.53;1.73;;;;;;;;;;5022271;28;20407;-58
2023/09/18 09:51:24;;;;;;;5.47;1.50;;;;;;;;;;5025823;28;20410;-59
2023/09/18 09:53:51;;;;;;;4.83;1.90;;;;;;;;;;5026641;28;20399;-59
2023/09/18 09:56:22;;;;;;;3.13;1.50;;;;;;;;;;5029630;28;20411;-58
2023/09/18 09:59:02;;;;;;;3.80;1.70;;;;;;;;;;5032358;28;20432;-58
2023/09/18 10:01:28;;;;;;;4.85;2.05;;;;;;;;;;5029208;28;20492;-58
2023/09/18 10:03:53;;;;;;;4.45;1.55;;;;;;;;;;5029342;28;20415;-58
2023/09/18 10:06:18;;;;;;;5.60;1.60;;;;;;;;;;5019093;28;20407;-58
2023/09/18 10:08:43;;;;;;;4.40;1.70;;;;;;;;;;5024593;28;20423;-58
2023/09/18 10:11:11;;;;;;;5.23;1.70;;;;;;;;;;5026108;28;20945;-59
2023/09/18 10:13:39;;;;;;;4.47;1.55;;;;;;;;;;5021662;28;20399;-59
2023/09/18 10:16:06;;;;;;;3.50;1.40;;;;;;;;;;5022902;28;20898;-58
2023/09/18 10:18:36;;;;;;;5.53;1.40;;;;;;;;;;5026080;28;20409;-58
2023/09/18 10:21:20;;;;;;;3.85;1.50;;;;;;;;;;5024380;28;20472;-60
2023/09/18 10:23:57;;;;;;;4.60;1.45;;;;;;;;;;5029055;28;20407;-58
2023/09/18 10:26:24;;;;;;;3.55;1.45;;;;;;;;;;5022469;28;20414;-58
2023/09/18 10:28:52;;;;;;;5.05;1.67;;;;;;;;;;5028366;28;20426;-58
2023/09/18 10:31:18;;;;;;;3.85;1.38;;;;;;;;;;5034946;28;20391;-59
2023/09/18 10:33:43;;;;;;;4.07;1.50;;;;;;;;;;5025373;28;20416;-58
2023/09/18 10:36:08;;;;;;;5.97;1.50;;;;;;;;;;5024332;28;20429;-59
2023/09/18 10:38:33;;;;;;;5.70;1.60;;;;;;;;;;5024043;28;20403;-59
2023/09/18 10:40:59;;;;;;;6.20;1.77;;;;;;;;;;5020102;28;20415;-58
2023/09/18 10:43:24;;;;;;;4.53;1.73;;;;;;;;;;5023307;28;20414;-59
2023/09/18 10:45:51;;;;;;;4.73;2.00;;;;;;;;;;5034149;28;20407;-58
2023/09/18 10:48:16;;;;;;;6.68;1.80;;;;;;;;;;5032652;28;20460;-58
2023/09/18 10:50:42;;;;;;;5.70;1.83;;;;;;;;;;5026477;28;20412;-58
2023/09/18 10:53:07;;;;;;;5.22;2.00;;;;;;;;;;5024709;28;20423;-59
2023/09/18 10:55:33;;;;;;;3.97;1.70;;;;;;;;;;5023495;28;20402;-58
2023/09/18 10:57:59;;;;;;;5.50;1.90;;;;;;;;;;5018405;28;20417;-58
2023/09/18 11:00:25;;;;;;;6.95;2.00;;;;;;;;;;5025097;28;20846;-58
2023/09/18 11:02:51;;;;;;;4.68;2.00;;;;;;;;;;4991949;28;20434;-58
2023/09/18 11:05:33;;;;;;;5.13;1.80;;;;;;;;;;5004948;28;20399;-58
2023/09/18 11:08:17;;;;;;;4.72;2.00;;;;;;;;;;5034308;28;20807;-58
2023/09/18 11:10:58;;;;;;;6.33;1.90;;;;;;;;;;5041203;28;20444;-58
2023/09/18 11:13:30;;;;;;;4.47;1.95;;;;;;;;;;5040404;28;20466;-58
2023/09/18 11:16:03;;;;;;;4.83;2.00;;;;;;;;;;5044359;28;20443;-58
2023/09/18 11:18:34;;;;;;;4.53;1.80;;;;;;;;;;5027840;28;20492;-58
2023/09/18 11:21:09;;;;;;;4.43;1.70;;;;;;;;;;5033454;28;20405;-59
2023/09/18 11:23:35;;;;;;;6.60;1.97;;;;;;;;;;5041532;28;20532;-59
2023/09/18 11:26:04;;;;;;;5.28;1.83;;;;;;;;;;5043874;28;20863;-59
2023/09/18 11:28:31;;;;;;;6.15;2.00;;;;;;;;;;5044101;28;20414;-58
2023/09/18 11:30:58;;;;;;;3.83;1.83;;;;;;;;;;5037882;28;20912;-58
2023/09/18 11:33:30;;;;;;;3.85;1.75;;;;;;;;;;5026623;28;20401;-59
2023/09/18 11:35:56;;;;;;;4.20;1.73;;;;;;;;;;5044321;28;20413;-58
2023/09/18 11:38:22;;;;;;;5.50;1.90;;;;;;;;;;5041296;28;20400;-59
2023/09/18 11:40:49;;;;;;;5.38;1.90;;;;;;;;;;5040532;28;20403;-58
2023/09/18 11:43:29;;;;;;;6.85;1.90;;;;;;;;;;5042159;28;20413;-58
2023/09/18 11:45:56;;;;;;;6.57;1.90;;;;;;;;;;5036658;28;20411;-58
2023/09/18 11:48:24;;;;;;;5.45;1.90;;;;;;;;;;5028949;28;21777;-58
2023/09/18 11:50:50;;;;;;;6.07;1.90;;;;;;;;;;5034867;28;20492;-58
2023/09/18 11:53:18;;;;;;;4.60;1.70;;;;;;;;;;5032612;28;20896;-59
2023/09/18 11:55:43;;;;;;;4.13;1.80;;;;;;;;;;5030042;28;20407;-59
2023/09/18 11:58:09;;;;;;;5.47;1.67;;;;;;;;;;5029966;28;20402;-59
2023/09/18 12:00:47;;;;;;;7.15;1.98;;;;;;;;;;5064377;27;20927;-58
2023/09/18 12:03:24;;;;;;;7.78;2.67;;;;;;;;;;5061891;28;20424;-60
2023/09/18 12:05:50;;;;;;;8.85;2.53;;;;;;;;;;5062724;28;20397;-59
2023/09/18 12:08:15;;;;;;;7.70;2.60;;;;;;;;;;5061341;28;20424;-59
2023/09/18 12:10:41;;;;;;;8.03;2.70;;;;;;;;;;5064392;28;20409;-59
2023/09/18 12:13:08;;;;;;;6.80;2.60;;;;;;;;;;5061076;28;20491;-59
2023/09/18 12:15:33;;;;;;;7.85;2.85;;;;;;;;;;5061592;28;20461;-59
2023/09/18 12:18:05;;;;;;;6.10;2.60;;;;;;;;;;5064119;28;20464;-58
2023/09/18 12:20:31;;;;;;;6.80;2.55;;;;;;;;;;5063330;28;20401;-59
2023/09/18 12:22:57;;;;;;;5.60;2.45;;;;;;;;;;5061720;28;20454;-58
2023/09/18 12:25:23;;;;;;;7.33;3.03;;;;;;;;;;5060712;28;20389;-59
2023/09/18 12:27:52;;;;;;;5.35;2.47;;;;;;;;;;5063836;28;20401;-59
2023/09/18 12:30:20;;;;;;;6.30;2.30;;;;;;;;;;5062024;28;20397;-58
2023/09/18 12:32:47;;;;;;;5.33;2.20;;;;;;;;;;5061986;28;20404;-58
2023/09/18 12:35:13;;;;;;;6.97;2.40;;;;;;;;;;5063197;28;20445;-59
2023/09/18 12:37:40;;;;;;;4.80;2.13;;;;;;;;;;5062298;28;20435;-59
2023/09/18 12:40:10;;;;;;;4.88;2.25;;;;;;;;;;5060964;28;21014;-59
2023/09/18 12:42:36;;;;;;;4.70;2.10;;;;;;;;;;5063321;28;20405;-58
2023/09/18 12:45:01;;;;;;;5.53;2.20;;;;;;;;;;5062518;28;20798;-59
2023/09/18 12:47:26;;;;;;;6.20;2.00;;;;;;;;;;5061299;28;20511;-58
2023/09/18 12:49:52;;;;;;;5.73;2.10;;;;;;;;;;5060364;28;20409;-58
2023/09/18 12:52:21;;;;;;;9.20;2.57;;;;;;;;;;5061664;28;20416;-58
2023/09/18 12:54:53;;;;;;;6.80;2.30;;;;;;;;;;5063373;28;20410;-59
2023/09/18 12:57:19;;;;;;;6.47;2.30;;;;;;;;;;5060382;28;20432;-59
2023/09/18 12:59:44;;;;;;;7.00;2.20;;;;;;;;;;5062758;28;21347;-58
2023/09/18 13:02:09;;;;;;;6.07;2.27;;;;;;;;;;5062576;28;20415;-59
2023/09/18 13:04:40;;;;;;;5.63;2.00;;;;;;;;;;5060105;28;20412;-58
2023/09/18 13:07:06;;;;;;;5.95;2.30;;;;;;;;;;5059769;28;20392;-59
2023/09/18 13:09:31;;;;;;;7.38;2.20;;;;;;;;;;5063219;28;20424;-59
2023/09/18 13:11:57;;;;;;;8.88;2.28;;;;;;;;;;5050171;28;20459;-58
2023/09/18 13:14:22;;;;;;;7.28;2.15;;;;;;;;;;5046644;28;20432;-58
2023/09/18 13:16:48;;;;;;;5.60;2.10;;;;;;;;;;5049744;28;20417;-59
2023/09/18 13:19:13;;;;;;;6.27;2.10;;;;;;;;;;5048613;28;21125;-58
2023/09/18 13:21:38;;;;;;;5.70;1.97;;;;;;;;;;5047743;28;20451;-58
2023/09/18 13:24:05;;;;;;;6.33;2.10;;;;;;;;;;5046922;28;20409;-58
2023/09/18 13:26:31;;;;;;;5.43;2.03;;;;;;;;;;5049248;28;20823;-58
2023/09/18 13:28:56;;;;;;;5.00;1.80;;;;;;;;;;5048446;28;20488;-58
2023/09/18 13:31:21;;;;;;;6.87;2.20;;;;;;;;;;5046295;28;20896;-59
2023/09/18 13:33:46;;;;;;;4.40;1.80;;;;;;;;;;5031623;28;20416;-58
2023/09/18 13:36:12;;;;;;;7.23;1.83;;;;;;;;;;5020340;28;20454;-58
2023/09/18 13:38:37;;;;;;;4.63;2.00;;;;;;;;;;5025555;28;20469;-58
2023/09/18 13:41:04;;;;;;;5.50;1.90;;;;;;;;;;5027872;28;20420;-58
2023/09/18 13:43:32;;;;;;;7.38;1.85;;;;;;;;;;5031151;28;20919;-58
2023/09/18 13:45:58;;;;;;;5.03;2.00;;;;;;;;;;5032446;28;20448;-58
2023/09/18 13:48:23;;;;;;;4.45;1.70;;;;;;;;;;5035535;28;20414;-58
2023/09/18 13:50:49;;;;;;;4.40;1.70;;;;;;;;;;5036106;28;20410;-58
2023/09/18 13:53:14;;;;;;;5.67;1.77;;;;;;;;;;5030975;28;20453;-58
2023/09/18 13:55:40;;;;;;;4.45;1.73;;;;;;;;;;5030101;28;21611;-58
2023/09/18 13:58:05;;;;;;;4.70;1.63;;;;;;;;;;5021765;28;20568;-59
2023/09/18 14:00:31;;;;;;;4.13;1.70;;;;;;;;;;5023261;28;20404;-58
2023/09/18 14:02:56;;;;;;;3.87;1.60;;;;;;;;;;5025811;28;20389;-58
2023/09/18 14:05:21;;;;;;;5.10;1.93;;;;;;;;;;5031170;28;20872;-58
2023/09/18 14:07:47;;;;;;;4.23;1.73;;;;;;;;;;5036245;28;20739;-58
2023/09/18 14:10:12;;;;;;;6.17;1.80;;;;;;;;;;5031044;28;20403;-58
2023/09/18 14:12:38;;;;;;;3.63;1.55;;;;;;;;;;5036126;28;20403;-58
2023/09/18 14:15:05;;;;;;;4.25;1.50;;;;;;;;;;5029697;28;20432;-59
2023/09/18 14:17:30;;;;;;;3.60;1.50;;;;;;;;;;5030169;28;20418;-58
2023/09/18 14:19:55;;;;;;;5.50;1.60;;;;;;;;;;5023569;28;20406;-58
2023/09/18 14:22:21;;;;;;;4.03;1.60;;;;;;;;;;5029167;28;20389;-58
2023/09/18 14:24:47;;;;;;;3.40;1.40;;;;;;;;;;5024102;28;20426;-58
2023/09/18 14:27:12;;;;;;;4.83;1.60;;;;;;;;;;5032272;28;20405;-58
2023/09/18 14:29:38;;;;;;;3.50;1.40;;;;;;;;;;5029122;28;20411;-58